createdAt,value
2019-04-07T00:00:46.516Z,0.00
2019-04-07T00:01:46.621Z,0.00
2019-04-07T00:02:46.487Z,0.00
2019-04-07T00:03:46.442Z,0.00
2019-04-07T00:04:46.682Z,0.00
2019-04-07T00:05:46.423Z,0.00
2019-04-07T00:06:46.442Z,0.00
2019-04-07T00:07:46.396Z,0.00
2019-04-07T00:08:46.600Z,0.00
2019-04-07T00:09:46.374Z,0.00
2019-04-07T00:10:46.868Z,0.00
2019-04-07T00:11:46.356Z,0.00
2019-04-07T00:12:46.505Z,0.00
2019-04-07T00:13:46.895Z,0.00
2019-04-07T00:14:46.650Z,0.00
2019-04-07T00:15:46.332Z,0.00
2019-04-07T00:16:46.327Z,0.00
2019-04-07T00:17:46.293Z,0.00
2019-04-07T00:18:46.992Z,0.00
2019-04-07T00:19:46.964Z,0.00
2019-04-07T00:20:46.258Z,0.00
2019-04-07T00:21:46.830Z,0.00
2019-04-07T00:22:46.227Z,0.00
2019-04-07T00:23:46.224Z,0.00
2019-04-07T00:24:46.745Z,0.00
2019-04-07T00:25:46.756Z,0.00
2019-04-07T00:26:46.187Z,0.00
2019-04-07T00:27:46.644Z,0.00
2019-04-07T00:28:46.389Z,0.00
2019-04-07T00:29:46.150Z,0.00
2019-04-07T00:30:46.138Z,0.00
2019-04-07T00:31:46.128Z,0.00
2019-04-07T00:32:46.764Z,0.00
2019-04-07T00:33:46.102Z,0.00
2019-04-07T00:34:46.726Z,0.00
2019-04-07T00:35:46.117Z,0.00
2019-04-07T00:36:46.098Z,0.00
2019-04-07T00:37:46.218Z,0.00
2019-04-07T00:38:46.151Z,0.00
2019-04-07T00:39:46.630Z,0.00
2019-04-07T00:40:46.024Z,0.00
2019-04-07T00:41:46.351Z,0.00
2019-04-07T00:42:46.000Z,0.00
2019-04-07T00:43:46.081Z,0.00
2019-04-07T00:44:46.609Z,0.00
2019-04-07T00:45:46.005Z,0.00
2019-04-07T00:46:46.024Z,0.00
2019-04-07T00:47:46.148Z,0.00
2019-04-07T00:48:45.934Z,0.00
2019-04-07T00:49:46.544Z,0.00
2019-04-07T00:50:46.072Z,0.00
2019-04-07T00:51:46.430Z,0.00
2019-04-07T00:52:45.895Z,0.00
2019-04-07T00:53:46.368Z,0.00
2019-04-07T00:54:45.948Z,0.00
2019-04-07T00:55:45.853Z,0.00
2019-04-07T00:56:45.872Z,0.00
2019-04-07T00:57:45.875Z,0.00
2019-04-07T00:58:45.817Z,0.00
2019-04-07T00:59:46.142Z,0.00
2019-04-07T01:00:45.877Z,0.00
2019-04-07T01:01:45.970Z,0.00
2019-04-07T01:02:46.504Z,0.00
2019-04-07T01:03:45.764Z,0.00
2019-04-07T01:04:46.015Z,0.00
2019-04-07T01:05:45.857Z,0.00
2019-04-07T01:06:45.727Z,0.00
2019-04-07T01:07:46.344Z,0.00
2019-04-07T01:08:46.319Z,0.00
2019-04-07T01:09:46.398Z,0.00
2019-04-07T01:10:45.844Z,0.00
2019-04-07T01:11:45.848Z,0.00
2019-04-07T01:12:45.812Z,0.00
2019-04-07T01:13:46.175Z,0.00
2019-04-07T01:14:45.652Z,0.00
2019-04-07T01:15:46.023Z,0.00
2019-04-07T01:16:45.688Z,0.00
2019-04-07T01:17:45.761Z,0.00
2019-04-07T01:18:45.594Z,0.00
2019-04-07T01:19:45.614Z,0.00
2019-04-07T01:20:46.728Z,0.00
2019-04-07T01:21:45.777Z,0.00
2019-04-07T01:22:45.550Z,0.00
2019-04-07T01:23:45.543Z,0.00
2019-04-07T01:24:45.561Z,0.00
2019-04-07T01:25:45.692Z,0.00
2019-04-07T01:26:45.509Z,0.00
2019-04-07T01:27:45.536Z,0.00
2019-04-07T01:28:45.642Z,0.00
2019-04-07T01:29:45.472Z,0.00
2019-04-07T01:30:45.839Z,0.00
2019-04-07T01:31:45.452Z,0.00
2019-04-07T01:32:45.563Z,0.00
2019-04-07T01:33:45.426Z,0.00
2019-04-07T01:34:45.780Z,0.00
2019-04-07T01:35:48.713Z,0.00
2019-04-07T01:36:45.499Z,0.00
2019-04-07T01:37:45.975Z,0.00
2019-04-07T01:38:46.055Z,0.00
2019-04-07T01:39:45.841Z,0.00
2019-04-07T01:40:45.458Z,0.00
2019-04-07T01:41:45.336Z,0.00
2019-04-07T01:42:45.638Z,0.00
2019-04-07T01:43:45.315Z,0.00
2019-04-07T01:44:45.307Z,0.00
2019-04-07T01:45:45.749Z,0.00
2019-04-07T01:46:45.862Z,0.00
2019-04-07T01:47:45.270Z,0.00
2019-04-07T01:48:45.751Z,0.00
2019-04-07T01:49:45.245Z,0.00
2019-04-07T01:50:45.266Z,0.00
2019-04-07T01:51:45.491Z,0.00
2019-04-07T01:52:45.381Z,0.00
2019-04-07T01:53:45.461Z,0.00
2019-04-07T01:54:45.191Z,0.00
2019-04-07T01:55:45.545Z,0.00
2019-04-07T01:56:45.197Z,0.00
2019-04-07T01:57:45.393Z,0.00
2019-04-07T01:58:45.151Z,0.00
2019-04-07T01:59:45.471Z,0.00
2019-04-07T02:00:45.479Z,0.00
2019-04-07T02:01:45.148Z,0.00
2019-04-07T02:02:45.563Z,0.00
2019-04-07T02:03:45.093Z,0.00
2019-04-07T02:04:45.203Z,0.00
2019-04-07T02:05:56.279Z,0.00
2019-04-07T02:06:46.389Z,0.00
2019-04-07T02:07:45.741Z,0.00
2019-04-07T02:08:45.372Z,0.00
2019-04-07T02:09:45.026Z,0.00
2019-04-07T02:10:45.014Z,0.00
2019-04-07T02:11:45.232Z,0.00
2019-04-07T02:12:45.552Z,0.00
2019-04-07T02:13:45.145Z,0.00
2019-04-07T02:14:45.531Z,0.00
2019-04-07T02:15:44.963Z,0.00
2019-04-07T02:16:45.314Z,0.00
2019-04-07T02:17:45.566Z,0.00
2019-04-07T02:18:45.431Z,0.00
2019-04-07T02:19:44.976Z,0.00
2019-04-07T02:20:44.925Z,0.00
2019-04-07T02:21:45.004Z,0.00
2019-04-07T02:22:45.367Z,0.00
2019-04-07T02:23:44.873Z,0.00
2019-04-07T02:24:45.333Z,0.00
2019-04-07T02:25:45.409Z,0.00
2019-04-07T02:26:45.529Z,0.00
2019-04-07T02:27:44.858Z,0.00
2019-04-07T02:28:44.815Z,0.00
2019-04-07T02:29:44.841Z,0.00
2019-04-07T02:30:45.042Z,0.00
2019-04-07T02:31:45.096Z,0.00
2019-04-07T02:32:44.774Z,0.00
2019-04-07T02:33:45.739Z,0.00
2019-04-07T02:34:45.543Z,0.00
2019-04-07T02:35:45.034Z,0.00
2019-04-07T02:36:44.731Z,0.00
2019-04-07T02:37:44.725Z,0.00
2019-04-07T02:38:45.609Z,0.00
2019-04-07T02:39:44.710Z,0.00
2019-04-07T02:40:45.695Z,0.00
2019-04-07T02:41:44.672Z,0.00
2019-04-07T02:42:44.658Z,0.00
2019-04-07T02:43:44.705Z,0.00
2019-04-07T02:44:45.240Z,0.00
2019-04-07T02:45:45.236Z,0.00
2019-04-07T02:46:44.648Z,0.00
2019-04-07T02:47:44.708Z,0.00
2019-04-07T02:48:44.712Z,0.00
2019-04-07T02:49:45.638Z,0.00
2019-04-07T02:50:45.209Z,0.00
2019-04-07T02:51:45.428Z,0.00
2019-04-07T02:52:45.230Z,0.00
2019-04-07T02:53:44.539Z,0.00
2019-04-07T02:54:44.594Z,0.00
2019-04-07T02:55:45.210Z,0.00
2019-04-07T02:56:45.053Z,0.00
2019-04-07T02:57:44.608Z,0.00
2019-04-07T02:58:44.521Z,0.00
2019-04-07T02:59:44.607Z,0.00
2019-04-07T03:00:44.604Z,0.00
2019-04-07T03:01:45.361Z,0.00
2019-04-07T03:02:45.554Z,0.00
2019-04-07T03:03:44.430Z,0.00
2019-04-07T03:04:44.530Z,0.00
2019-04-07T03:05:44.439Z,0.00
2019-04-07T03:06:49.764Z,0.00
2019-04-07T03:07:47.235Z,0.00
2019-04-07T03:08:45.321Z,0.00
2019-04-07T03:09:44.401Z,0.00
2019-04-07T03:10:44.354Z,0.00
2019-04-07T03:11:44.617Z,0.00
2019-04-07T03:12:44.331Z,0.00
2019-04-07T03:13:45.176Z,0.00
2019-04-07T03:14:44.335Z,0.00
2019-04-07T03:15:44.363Z,0.00
2019-04-07T03:16:44.792Z,0.00
2019-04-07T03:17:44.278Z,0.00
2019-04-07T03:18:44.478Z,0.00
2019-04-07T03:19:44.252Z,0.00
2019-04-07T03:20:44.274Z,0.00
2019-04-07T03:21:44.228Z,0.00
2019-04-07T03:22:44.218Z,0.00
2019-04-07T03:23:44.211Z,0.00
2019-04-07T03:24:44.519Z,0.00
2019-04-07T03:25:45.151Z,0.00
2019-04-07T03:26:44.518Z,0.00
2019-04-07T03:27:44.471Z,0.00
2019-04-07T03:28:44.411Z,0.00
2019-04-07T03:29:45.151Z,0.00
2019-04-07T03:30:45.249Z,0.00
2019-04-07T03:31:45.892Z,0.00
2019-04-07T03:32:47.632Z,0.00
2019-04-07T03:33:48.115Z,0.00
2019-04-07T03:34:46.621Z,0.00
2019-04-07T03:35:46.155Z,0.00
2019-04-07T03:37:11.644Z,0.00
2019-04-07T03:37:47.522Z,0.00
2019-04-07T03:38:44.041Z,0.00
2019-04-07T03:39:44.029Z,0.00
2019-04-07T03:40:44.262Z,0.00
2019-04-07T03:41:44.055Z,0.00
2019-04-07T03:42:44.031Z,0.00
2019-04-07T03:43:44.121Z,0.00
2019-04-07T03:44:44.856Z,0.00
2019-04-07T03:45:43.963Z,0.00
2019-04-07T03:46:43.955Z,0.00
2019-04-07T03:47:43.980Z,0.00
2019-04-07T03:48:44.516Z,0.00
2019-04-07T03:49:43.922Z,0.00
2019-04-07T03:50:44.354Z,0.00
2019-04-07T03:51:44.026Z,0.00
2019-04-07T03:52:44.973Z,0.00
2019-04-07T03:53:43.909Z,0.00
2019-04-07T03:54:43.898Z,0.00
2019-04-07T03:55:44.007Z,0.00
2019-04-07T03:56:43.844Z,0.00
2019-04-07T03:57:43.835Z,0.00
2019-04-07T03:58:44.162Z,0.00
2019-04-07T03:59:44.550Z,0.00
2019-04-07T04:00:43.833Z,0.00
2019-04-07T04:01:43.791Z,0.00
2019-04-07T04:02:44.355Z,0.00
2019-04-07T04:03:44.061Z,0.00
2019-04-07T04:04:43.787Z,0.00
2019-04-07T04:05:43.776Z,0.00
2019-04-07T04:06:43.730Z,0.00
2019-04-07T04:07:44.174Z,0.00
2019-04-07T04:08:43.748Z,0.00
2019-04-07T04:09:44.106Z,0.00
2019-04-07T04:10:43.810Z,0.00
2019-04-07T04:11:43.815Z,0.00
2019-04-07T04:12:43.747Z,0.00
2019-04-07T04:13:44.302Z,0.00
2019-04-07T04:14:43.677Z,0.00
2019-04-07T04:15:44.544Z,0.00
2019-04-07T04:16:44.407Z,0.00
2019-04-07T04:17:43.653Z,0.00
2019-04-07T04:18:43.625Z,0.00
2019-04-07T04:19:44.028Z,0.00
2019-04-07T04:20:44.367Z,0.00
2019-04-07T04:21:44.458Z,0.00
2019-04-07T04:22:44.352Z,0.00
2019-04-07T04:23:44.586Z,0.00
2019-04-07T04:24:43.760Z,0.00
2019-04-07T04:25:43.523Z,0.00
2019-04-07T04:26:44.128Z,0.00
2019-04-07T04:27:44.255Z,0.00
2019-04-07T04:28:44.267Z,0.00
2019-04-07T04:29:43.632Z,0.00
2019-04-07T04:30:44.101Z,0.00
2019-04-07T04:31:43.580Z,0.00
2019-04-07T04:32:43.765Z,0.00
2019-04-07T04:33:44.310Z,0.00
2019-04-07T04:34:43.420Z,0.00
2019-04-07T04:35:44.156Z,0.00
2019-04-07T04:36:43.415Z,0.00
2019-04-07T04:37:48.736Z,0.00
2019-04-07T04:38:44.381Z,0.00
2019-04-07T04:39:44.463Z,0.00
2019-04-07T04:40:44.071Z,0.00
2019-04-07T04:41:43.349Z,0.00
2019-04-07T04:42:44.365Z,0.00
2019-04-07T04:43:43.355Z,0.00
2019-04-07T04:44:44.319Z,0.00
2019-04-07T04:45:43.303Z,0.00
2019-04-07T04:46:43.291Z,0.00
2019-04-07T04:47:43.280Z,0.00
2019-04-07T04:48:43.283Z,0.00
2019-04-07T04:49:43.606Z,0.00
2019-04-07T04:50:43.994Z,0.00
2019-04-07T04:51:43.562Z,5.62
2019-04-07T04:52:43.224Z,5.62
2019-04-07T04:53:43.213Z,5.62
2019-04-07T04:54:43.353Z,5.62
2019-04-07T04:55:43.905Z,5.62
2019-04-07T04:56:43.467Z,5.62
2019-04-07T04:57:43.167Z,5.62
2019-04-07T04:58:43.158Z,5.62
2019-04-07T04:59:43.146Z,5.62
2019-04-07T05:00:43.145Z,11.25
2019-04-07T05:01:43.308Z,11.25
2019-04-07T05:02:43.522Z,11.25
2019-04-07T05:03:43.375Z,11.25
2019-04-07T05:04:43.860Z,11.25
2019-04-07T05:05:43.236Z,11.25
2019-04-07T05:06:43.513Z,11.25
2019-04-07T05:07:55.614Z,16.88
2019-04-07T05:08:44.410Z,16.88
2019-04-07T05:09:49.697Z,16.88
2019-04-07T05:10:44.043Z,16.88
2019-04-07T05:11:43.022Z,16.88
2019-04-07T05:12:43.420Z,22.50
2019-04-07T05:13:43.355Z,22.50
2019-04-07T05:14:42.996Z,22.50
2019-04-07T05:15:43.430Z,22.50
2019-04-07T05:16:43.594Z,22.50
2019-04-07T05:17:43.587Z,22.50
2019-04-07T05:18:42.941Z,28.12
2019-04-07T05:19:42.982Z,28.12
2019-04-07T05:20:42.938Z,28.12
2019-04-07T05:21:42.910Z,28.12
2019-04-07T05:22:43.362Z,28.12
2019-04-07T05:23:42.881Z,33.75
2019-04-07T05:24:42.874Z,33.75
2019-04-07T05:25:42.869Z,33.75
2019-04-07T05:26:43.074Z,33.75
2019-04-07T05:27:43.219Z,33.75
2019-04-07T05:28:42.859Z,39.38
2019-04-07T05:29:42.846Z,39.38
2019-04-07T05:30:42.815Z,39.38
2019-04-07T05:31:42.793Z,39.38
2019-04-07T05:32:43.190Z,45.00
2019-04-07T05:33:43.271Z,45.00
2019-04-07T05:34:42.820Z,45.00
2019-04-07T05:35:42.930Z,50.62
2019-04-07T05:36:43.321Z,50.62
2019-04-07T05:37:43.360Z,50.62
2019-04-07T05:38:42.714Z,56.25
2019-04-07T05:39:42.733Z,56.25
2019-04-07T05:40:43.290Z,56.25
2019-04-07T05:41:42.682Z,56.25
2019-04-07T05:42:43.324Z,61.88
2019-04-07T05:43:42.756Z,61.88
2019-04-07T05:44:43.193Z,61.88
2019-04-07T05:45:43.902Z,61.88
2019-04-07T05:46:43.415Z,67.50
2019-04-07T05:47:47.790Z,67.50
2019-04-07T05:48:43.659Z,67.50
2019-04-07T05:49:42.607Z,67.50
2019-04-07T05:50:42.583Z,67.50
2019-04-07T05:51:42.584Z,73.12
2019-04-07T05:52:43.124Z,73.12
2019-04-07T05:53:46.466Z,73.12
2019-04-07T05:54:42.827Z,73.12
2019-04-07T05:55:42.656Z,78.75
2019-04-07T05:56:42.516Z,78.75
2019-04-07T05:57:43.150Z,78.75
2019-04-07T05:58:43.578Z,78.75
2019-04-07T05:59:43.622Z,84.38
2019-04-07T06:00:45.737Z,84.38
2019-04-07T06:01:42.498Z,84.38
2019-04-07T06:02:42.926Z,84.38
2019-04-07T06:03:43.641Z,90.00
2019-04-07T06:04:42.709Z,90.00
2019-04-07T06:05:47.268Z,90.00
2019-04-07T06:06:44.183Z,90.00
2019-04-07T06:07:42.529Z,95.62
2019-04-07T06:08:42.418Z,95.62
2019-04-07T06:09:42.634Z,95.62
2019-04-07T06:10:42.362Z,101.25
2019-04-07T06:11:42.350Z,101.25
2019-04-07T06:12:46.084Z,101.25
2019-04-07T06:13:44.598Z,101.25
2019-04-07T06:14:44.366Z,106.88
2019-04-07T06:15:42.314Z,106.88
2019-04-07T06:16:42.816Z,106.88
2019-04-07T06:17:42.284Z,106.88
2019-04-07T06:18:42.300Z,112.50
2019-04-07T06:19:42.325Z,112.50
2019-04-07T06:20:44.117Z,112.50
2019-04-07T06:21:46.143Z,118.12
2019-04-07T06:22:45.479Z,118.12
2019-04-07T06:23:42.246Z,118.12
2019-04-07T06:24:42.237Z,118.12
2019-04-07T06:25:43.655Z,118.12
2019-04-07T06:26:45.795Z,118.12
2019-04-07T06:27:45.272Z,118.12
2019-04-07T06:28:42.157Z,123.75
2019-04-07T06:29:42.376Z,123.75
2019-04-07T06:30:42.804Z,123.75
2019-04-07T06:31:42.379Z,123.75
2019-04-07T06:32:43.721Z,123.75
2019-04-07T06:33:42.099Z,123.75
2019-04-07T06:34:43.649Z,135.00
2019-04-07T06:35:44.961Z,129.38
2019-04-07T06:36:42.067Z,129.38
2019-04-07T06:37:42.061Z,129.38
2019-04-07T06:38:47.455Z,129.38
2019-04-07T06:39:43.031Z,129.38
2019-04-07T06:40:42.021Z,129.38
2019-04-07T06:41:42.244Z,135.00
2019-04-07T06:42:44.012Z,135.00
2019-04-07T06:43:41.984Z,135.00
2019-04-07T06:44:41.979Z,135.00
2019-04-07T06:45:41.964Z,135.00
2019-04-07T06:46:42.363Z,140.62
2019-04-07T06:47:42.185Z,140.62
2019-04-07T06:48:41.929Z,140.62
2019-04-07T06:49:44.727Z,140.62
2019-04-07T06:50:48.609Z,140.62
2019-04-07T06:51:43.420Z,140.62
2019-04-07T06:52:42.191Z,140.62
2019-04-07T06:53:43.046Z,140.62
2019-04-07T06:54:41.864Z,146.25
2019-04-07T06:55:41.850Z,146.25
2019-04-07T06:56:41.886Z,146.25
2019-04-07T06:57:41.830Z,146.25
2019-04-07T06:58:41.926Z,146.25
2019-04-07T06:59:45.648Z,146.25
2019-04-07T07:00:43.266Z,146.25
2019-04-07T07:01:41.815Z,146.25
2019-04-07T07:02:43.813Z,146.25
2019-04-07T07:03:42.084Z,151.88
2019-04-07T07:04:44.011Z,151.88
2019-04-07T07:05:45.367Z,151.88
2019-04-07T07:06:42.223Z,151.88
2019-04-07T07:07:42.521Z,151.88
2019-04-07T07:08:45.860Z,151.88
2019-04-07T07:09:41.803Z,151.88
2019-04-07T07:10:42.827Z,151.88
2019-04-07T07:11:44.126Z,151.88
2019-04-07T07:12:42.148Z,151.88
2019-04-07T07:13:43.914Z,157.50
2019-04-07T07:14:45.011Z,157.50
2019-04-07T07:15:42.877Z,157.50
2019-04-07T07:16:44.394Z,157.50
2019-04-07T07:17:42.228Z,157.50
2019-04-07T07:18:41.590Z,157.50
2019-04-07T07:19:42.243Z,157.50
2019-04-07T07:20:41.570Z,157.50
2019-04-07T07:21:41.582Z,157.50
2019-04-07T07:22:42.393Z,157.50
2019-04-07T07:23:44.929Z,163.12
2019-04-07T07:24:42.800Z,163.12
2019-04-07T07:25:42.061Z,163.12
2019-04-07T07:26:41.509Z,163.12
2019-04-07T07:27:42.756Z,163.12
2019-04-07T07:28:43.278Z,163.12
2019-04-07T07:29:45.368Z,163.12
2019-04-07T07:30:42.765Z,163.12
2019-04-07T07:31:41.442Z,163.12
2019-04-07T07:32:41.470Z,163.12
2019-04-07T07:33:42.644Z,168.75
2019-04-07T07:34:42.457Z,168.75
2019-04-07T07:35:43.983Z,168.75
2019-04-07T07:36:42.842Z,168.75
2019-04-07T07:37:41.372Z,168.75
2019-04-07T07:38:42.835Z,168.75
2019-04-07T07:39:44.899Z,168.75
2019-04-07T07:40:41.884Z,168.75
2019-04-07T07:41:41.326Z,168.75
2019-04-07T07:42:42.017Z,168.75
2019-04-07T07:43:41.519Z,168.75
2019-04-07T07:44:41.825Z,168.75
2019-04-07T07:45:44.826Z,168.75
2019-04-07T07:46:42.271Z,168.75
2019-04-07T07:47:41.609Z,168.75
2019-04-07T07:48:41.247Z,168.75
2019-04-07T07:49:42.317Z,168.75
2019-04-07T07:50:41.236Z,168.75
2019-04-07T07:51:45.070Z,168.75
2019-04-07T07:52:42.233Z,168.75
2019-04-07T07:53:41.557Z,168.75
2019-04-07T07:54:41.179Z,168.75
2019-04-07T07:55:41.288Z,174.38
2019-04-07T07:56:43.219Z,174.38
2019-04-07T07:57:42.517Z,174.38
2019-04-07T07:58:41.173Z,174.38
2019-04-07T07:59:41.120Z,174.38
2019-04-07T08:00:43.289Z,174.38
2019-04-07T08:01:44.267Z,174.38
2019-04-07T08:02:42.118Z,174.38
2019-04-07T08:03:41.445Z,174.38
2019-04-07T08:04:41.065Z,174.38
2019-04-07T08:05:41.054Z,174.38
2019-04-07T08:06:41.148Z,174.38
2019-04-07T08:07:44.364Z,174.38
2019-04-07T08:08:41.024Z,174.38
2019-04-07T08:09:42.028Z,174.38
2019-04-07T08:10:41.000Z,174.38
2019-04-07T08:11:40.982Z,174.38
2019-04-07T08:12:41.222Z,174.38
2019-04-07T08:13:43.923Z,174.38
2019-04-07T08:14:41.469Z,174.38
2019-04-07T08:15:41.580Z,174.38
2019-04-07T08:16:40.926Z,174.38
2019-04-07T08:17:41.009Z,174.38
2019-04-07T08:18:44.577Z,180.00
2019-04-07T08:19:44.137Z,180.00
2019-04-07T08:20:44.158Z,180.00
2019-04-07T08:21:43.368Z,180.00
2019-04-07T08:22:43.668Z,180.00
2019-04-07T08:23:43.047Z,180.00
2019-04-07T08:24:41.511Z,180.00
2019-04-07T08:25:40.827Z,180.00
2019-04-07T08:26:40.897Z,180.00
2019-04-07T08:27:40.923Z,180.00
2019-04-07T08:28:40.830Z,180.00
2019-04-07T08:29:41.158Z,180.00
2019-04-07T08:30:43.983Z,180.00
2019-04-07T08:31:41.758Z,180.00
2019-04-07T08:32:40.991Z,180.00
2019-04-07T08:33:40.989Z,180.00
2019-04-07T08:34:41.464Z,180.00
2019-04-07T08:35:40.828Z,180.00
2019-04-07T08:36:43.504Z,180.00
2019-04-07T08:37:41.525Z,180.00
2019-04-07T08:38:41.160Z,180.00
2019-04-07T08:39:40.668Z,180.00
2019-04-07T08:40:40.662Z,180.00
2019-04-07T08:41:42.459Z,180.00
2019-04-07T08:42:41.188Z,180.00
2019-04-07T08:43:40.931Z,180.00
2019-04-07T08:44:40.831Z,180.00
2019-04-07T08:45:41.377Z,180.00
2019-04-07T08:46:42.884Z,180.00
2019-04-07T08:47:40.672Z,180.00
2019-04-07T08:48:40.571Z,180.00
2019-04-07T08:49:40.560Z,185.62
2019-04-07T08:50:41.018Z,185.62
2019-04-07T08:51:40.549Z,180.00
2019-04-07T08:52:42.650Z,185.62
2019-04-07T08:53:43.718Z,185.62
2019-04-07T08:54:40.501Z,185.62
2019-04-07T08:55:40.609Z,185.62
2019-04-07T08:56:40.514Z,185.62
2019-04-07T08:57:41.201Z,185.62
2019-04-07T08:58:41.296Z,185.62
2019-04-07T08:59:41.860Z,185.62
2019-04-07T09:00:40.446Z,185.62
2019-04-07T09:01:40.518Z,180.00
2019-04-07T09:02:40.444Z,180.00
2019-04-07T09:03:43.888Z,180.00
2019-04-07T09:04:41.615Z,180.00
2019-04-07T09:05:41.043Z,180.00
2019-04-07T09:06:40.869Z,180.00
2019-04-07T09:07:41.112Z,180.00
2019-04-07T09:08:40.952Z,180.00
2019-04-07T09:09:46.576Z,180.00
2019-04-07T09:10:41.326Z,180.00
2019-04-07T09:11:41.631Z,180.00
2019-04-07T09:12:40.769Z,180.00
2019-04-07T09:13:41.309Z,180.00
2019-04-07T09:14:40.897Z,180.00
2019-04-07T09:15:43.049Z,185.62
2019-04-07T09:16:40.496Z,185.62
2019-04-07T09:17:45.675Z,185.62
2019-04-07T09:18:51.711Z,185.62
2019-04-07T09:19:41.652Z,185.62
2019-04-07T09:20:42.483Z,185.62
2019-04-07T09:21:42.442Z,185.62
2019-04-07T09:22:40.676Z,185.62
2019-04-07T09:23:40.494Z,185.62
2019-04-07T09:24:40.171Z,185.62
2019-04-07T09:25:41.122Z,185.62
2019-04-07T09:26:42.113Z,185.62
2019-04-07T09:27:41.024Z,185.62
2019-04-07T09:28:40.162Z,185.62
2019-04-07T09:29:40.961Z,185.62
2019-04-07T09:30:40.777Z,185.62
2019-04-07T09:31:40.090Z,185.62
2019-04-07T09:32:40.613Z,185.62
2019-04-07T09:33:40.100Z,191.25
2019-04-07T09:34:40.355Z,191.25
2019-04-07T09:35:40.040Z,191.25
2019-04-07T09:36:40.681Z,191.25
2019-04-07T09:37:40.025Z,191.25
2019-04-07T09:38:40.761Z,191.25
2019-04-07T09:39:54.760Z,196.88
2019-04-07T09:40:42.221Z,191.25
2019-04-07T09:41:42.670Z,191.25
2019-04-07T09:42:40.169Z,191.25
2019-04-07T09:43:40.358Z,191.25
2019-04-07T09:44:40.233Z,191.25
2019-04-07T09:45:39.945Z,191.25
2019-04-07T09:46:44.641Z,191.25
2019-04-07T09:47:41.397Z,196.88
2019-04-07T09:48:40.540Z,196.88
2019-04-07T09:49:40.307Z,196.88
2019-04-07T09:50:40.752Z,196.88
2019-04-07T09:51:41.409Z,196.88
2019-04-07T09:52:43.579Z,196.88
2019-04-07T09:53:41.490Z,196.88
2019-04-07T09:54:39.828Z,202.50
2019-04-07T09:55:39.822Z,202.50
2019-04-07T09:56:40.651Z,202.50
2019-04-07T09:57:40.916Z,202.50
2019-04-07T09:58:42.675Z,202.50
2019-04-07T09:59:39.770Z,202.50
2019-04-07T10:00:39.926Z,208.12
2019-04-07T10:01:40.004Z,208.12
2019-04-07T10:02:39.831Z,208.12
2019-04-07T10:03:39.725Z,208.12
2019-04-07T10:04:42.441Z,202.50
2019-04-07T10:05:40.450Z,208.12
2019-04-07T10:06:39.765Z,213.75
2019-04-07T10:07:42.340Z,219.38
2019-04-07T10:08:39.675Z,225.00
2019-04-07T10:09:39.994Z,219.38
2019-04-07T10:10:39.965Z,219.38
2019-04-07T10:11:39.657Z,219.38
2019-04-07T10:12:40.414Z,230.62
2019-04-07T10:13:39.837Z,230.62
2019-04-07T10:14:39.808Z,230.62
2019-04-07T10:15:39.679Z,230.62
2019-04-07T10:16:39.587Z,230.62
2019-04-07T10:17:39.582Z,241.88
2019-04-07T10:18:40.121Z,225.00
2019-04-07T10:19:39.558Z,196.88
2019-04-07T10:20:39.750Z,196.88
2019-04-07T10:21:39.530Z,225.00
2019-04-07T10:22:39.620Z,230.62
2019-04-07T10:23:40.279Z,219.38
2019-04-07T10:24:39.531Z,230.62
2019-04-07T10:25:40.293Z,236.25
2019-04-07T10:26:39.472Z,230.62
2019-04-07T10:27:39.701Z,225.00
2019-04-07T10:28:41.853Z,230.62
2019-04-07T10:29:39.836Z,225.00
2019-04-07T10:30:39.942Z,230.62
2019-04-07T10:31:39.787Z,230.62
2019-04-07T10:32:39.626Z,236.25
2019-04-07T10:33:39.412Z,247.50
2019-04-07T10:34:39.419Z,258.75
2019-04-07T10:35:39.631Z,258.75
2019-04-07T10:36:39.392Z,253.12
2019-04-07T10:37:39.350Z,253.12
2019-04-07T10:38:39.343Z,241.88
2019-04-07T10:39:39.895Z,241.88
2019-04-07T10:40:40.052Z,230.62
2019-04-07T10:41:39.385Z,208.12
2019-04-07T10:42:40.136Z,241.88
2019-04-07T10:43:39.383Z,236.25
2019-04-07T10:44:39.983Z,241.88
2019-04-07T10:45:39.388Z,241.88
2019-04-07T10:46:39.529Z,241.88
2019-04-07T10:47:40.061Z,241.88
2019-04-07T10:48:40.032Z,236.25
2019-04-07T10:49:39.479Z,241.88
2019-04-07T10:50:39.213Z,241.88
2019-04-07T10:51:39.720Z,247.50
2019-04-07T10:52:39.374Z,253.12
2019-04-07T10:53:39.414Z,258.75
2019-04-07T10:54:39.290Z,253.12
2019-04-07T10:55:39.579Z,247.50
2019-04-07T10:56:39.146Z,241.88
2019-04-07T10:57:39.135Z,247.50
2019-04-07T10:58:39.289Z,241.88
2019-04-07T10:59:39.150Z,241.88
2019-04-07T11:00:42.490Z,236.25
2019-04-07T11:01:40.087Z,236.25
2019-04-07T11:02:39.344Z,236.25
2019-04-07T11:03:39.468Z,236.25
2019-04-07T11:04:39.053Z,236.25
2019-04-07T11:05:39.346Z,230.62
2019-04-07T11:06:39.408Z,236.25
2019-04-07T11:07:39.343Z,236.25
2019-04-07T11:08:39.019Z,236.25
2019-04-07T11:09:39.039Z,241.88
2019-04-07T11:10:39.474Z,241.88
2019-04-07T11:11:38.981Z,241.88
2019-04-07T11:12:39.585Z,241.88
2019-04-07T11:13:38.959Z,241.88
2019-04-07T11:14:39.406Z,253.12
2019-04-07T11:15:39.338Z,247.50
2019-04-07T11:16:38.928Z,253.12
2019-04-07T11:17:39.473Z,247.50
2019-04-07T11:18:38.897Z,247.50
2019-04-07T11:19:39.718Z,253.12
2019-04-07T11:20:39.018Z,253.12
2019-04-07T11:21:39.274Z,253.12
2019-04-07T11:22:38.859Z,253.12
2019-04-07T11:23:39.206Z,258.75
2019-04-07T11:24:39.027Z,258.75
2019-04-07T11:25:39.399Z,264.38
2019-04-07T11:26:39.708Z,270.00
2019-04-07T11:27:38.821Z,275.62
2019-04-07T11:28:39.052Z,275.62
2019-04-07T11:29:39.667Z,281.25
2019-04-07T11:30:38.771Z,286.88
2019-04-07T11:31:38.794Z,281.25
2019-04-07T11:32:38.744Z,275.62
2019-04-07T11:33:39.496Z,275.62
2019-04-07T11:34:39.044Z,275.62
2019-04-07T11:35:38.721Z,275.62
2019-04-07T11:36:39.612Z,270.00
2019-04-07T11:37:38.689Z,270.00
2019-04-07T11:38:38.714Z,264.38
2019-04-07T11:39:38.741Z,264.38
2019-04-07T11:40:44.496Z,264.38
2019-04-07T11:41:40.271Z,264.38
2019-04-07T11:42:39.226Z,264.38
2019-04-07T11:43:39.178Z,264.38
2019-04-07T11:44:38.615Z,264.38
2019-04-07T11:45:38.993Z,264.38
2019-04-07T11:46:38.939Z,264.38
2019-04-07T11:47:38.607Z,270.00
2019-04-07T11:48:39.261Z,270.00
2019-04-07T11:49:41.423Z,281.25
2019-04-07T11:50:38.556Z,292.50
2019-04-07T11:51:39.085Z,298.12
2019-04-07T11:52:38.538Z,315.00
2019-04-07T11:53:39.409Z,326.25
2019-04-07T11:54:38.505Z,331.88
2019-04-07T11:55:38.838Z,337.50
2019-04-07T11:56:39.432Z,337.50
2019-04-07T11:57:41.123Z,343.12
2019-04-07T11:58:38.659Z,343.12
2019-04-07T11:59:39.335Z,348.75
2019-04-07T12:00:39.822Z,309.38
2019-04-07T12:01:39.384Z,343.12
2019-04-07T12:02:41.089Z,303.75
2019-04-07T12:03:38.717Z,371.25
2019-04-07T12:04:38.415Z,348.75
2019-04-07T12:05:38.414Z,315.00
2019-04-07T12:06:38.637Z,348.75
2019-04-07T12:07:39.009Z,348.75
2019-04-07T12:08:38.682Z,382.50
2019-04-07T12:09:39.516Z,320.62
2019-04-07T12:10:38.737Z,343.12
2019-04-07T12:11:38.688Z,371.25
2019-04-07T12:12:38.660Z,382.50
2019-04-07T12:13:38.653Z,388.12
2019-04-07T12:14:38.503Z,393.75
2019-04-07T12:15:38.824Z,405.00
2019-04-07T12:16:38.985Z,410.62
2019-04-07T12:17:42.057Z,416.25
2019-04-07T12:18:38.708Z,405.00
2019-04-07T12:19:38.720Z,405.00
2019-04-07T12:20:38.241Z,405.00
2019-04-07T12:21:39.264Z,360.00
2019-04-07T12:22:39.171Z,399.38
2019-04-07T12:23:38.294Z,399.38
2019-04-07T12:24:38.162Z,399.38
2019-04-07T12:25:38.463Z,399.38
2019-04-07T12:26:41.932Z,393.75
2019-04-07T12:27:43.016Z,393.75
2019-04-07T12:28:38.140Z,393.75
2019-04-07T12:29:38.605Z,393.75
2019-04-07T12:30:38.097Z,399.38
2019-04-07T12:31:38.128Z,399.38
2019-04-07T12:32:38.076Z,393.75
2019-04-07T12:33:39.317Z,388.12
2019-04-07T12:34:38.636Z,382.50
2019-04-07T12:35:38.038Z,382.50
2019-04-07T12:36:38.675Z,376.88
2019-04-07T12:37:40.889Z,376.88
2019-04-07T12:38:38.170Z,371.25
2019-04-07T12:39:38.698Z,365.62
2019-04-07T12:40:38.817Z,360.00
2019-04-07T12:41:37.975Z,354.38
2019-04-07T12:42:38.631Z,360.00
2019-04-07T12:43:37.950Z,365.62
2019-04-07T12:44:38.259Z,376.88
2019-04-07T12:45:38.481Z,382.50
2019-04-07T12:46:38.685Z,393.75
2019-04-07T12:47:37.992Z,399.38
2019-04-07T12:48:38.114Z,399.38
2019-04-07T12:49:42.213Z,393.75